sensor_id;sensor_type;location;lat;lon;timestamp;P1;durP1;ratioP1;P2;durP2;ratioP2
50649;SDS011;36621;60.058;30.346;2023-02-15T04:14:25;10.52;;;3.30;;
50649;SDS011;36621;60.058;30.346;2023-02-15T04:22:15;9.88;;;3.45;;
50649;SDS011;36621;60.058;30.346;2023-02-15T04:30:07;10.48;;;4.28;;
50649;SDS011;36621;60.058;30.346;2023-02-15T04:37:42;10.07;;;5.13;;
50649;SDS011;36621;60.058;30.346;2023-02-15T04:45:16;12.63;;;4.00;;
50649;SDS011;36621;60.058;30.346;2023-02-15T04:52:57;8.18;;;3.33;;
50649;SDS011;36621;60.058;30.346;2023-02-15T05:00:32;9.25;;;3.30;;
50649;SDS011;36621;60.058;30.346;2023-02-15T05:08:04;8.90;;;3.70;;
50649;SDS011;36621;60.058;30.346;2023-02-15T05:15:36;6.28;;;3.20;;
50649;SDS011;36621;60.058;30.346;2023-02-15T05:23:08;11.00;;;4.32;;
50649;SDS011;36621;60.058;30.346;2023-02-15T05:30:41;7.50;;;3.30;;
50649;SDS011;36621;60.058;30.346;2023-02-15T05:38:13;10.15;;;3.47;;
50649;SDS011;36621;60.058;30.346;2023-02-15T05:45:46;9.75;;;3.88;;
50649;SDS011;36621;60.058;30.346;2023-02-15T05:53:18;9.48;;;3.83;;
50649;SDS011;36621;60.058;30.346;2023-02-15T06:00:50;10.23;;;3.67;;
50649;SDS011;36621;60.058;30.346;2023-02-15T06:08:23;5.25;;;3.00;;
50649;SDS011;36621;60.058;30.346;2023-02-15T06:15:55;12.85;;;5.35;;
50649;SDS011;36621;60.058;30.346;2023-02-15T06:23:27;9.35;;;4.65;;
50649;SDS011;36621;60.058;30.346;2023-02-15T06:31:03;17.90;;;7.65;;
50649;SDS011;36621;60.058;30.346;2023-02-15T06:38:36;13.48;;;6.72;;
50649;SDS011;36621;60.058;30.346;2023-02-15T06:46:09;18.10;;;8.52;;
50649;SDS011;36621;60.058;30.346;2023-02-15T17:23:22;23.27;;;9.23;;
50649;SDS011;36621;60.058;30.346;2023-02-15T17:30:57;26.23;;;10.32;;
50649;SDS011;36621;60.058;30.346;2023-02-15T17:46:53;24.98;;;10.98;;
50649;SDS011;36621;60.058;30.346;2023-02-15T17:54:31;27.13;;;11.07;;
50649;SDS011;36621;60.058;30.346;2023-02-15T18:02:21;25.40;;;12.32;;
50649;SDS011;36621;60.058;30.346;2023-02-15T18:10:13;21.48;;;10.27;;
50649;SDS011;36621;60.058;30.346;2023-02-15T18:18:04;27.15;;;12.05;;
50649;SDS011;36621;60.058;30.346;2023-02-15T18:25:40;29.67;;;13.48;;
50649;SDS011;36621;60.058;30.346;2023-02-15T18:33:19;32.80;;;13.82;;
50649;SDS011;36621;60.058;30.346;2023-02-15T18:41:01;28.58;;;13.88;;
50649;SDS011;36621;60.058;30.346;2023-02-15T18:48:38;31.52;;;13.48;;
50649;SDS011;36621;60.058;30.346;2023-02-15T18:56:19;25.20;;;13.35;;
50649;SDS011;36621;60.058;30.346;2023-02-15T19:04:04;29.98;;;13.95;;
50649;SDS011;36621;60.058;30.346;2023-02-15T19:11:52;26.95;;;13.27;;
50649;SDS011;36621;60.058;30.346;2023-02-15T19:19:25;25.55;;;11.00;;
50649;SDS011;36621;60.058;30.346;2023-02-15T19:26:58;22.25;;;8.75;;
50649;SDS011;36621;60.058;30.346;2023-02-15T19:34:33;20.20;;;8.18;;
50649;SDS011;36621;60.058;30.346;2023-02-15T19:42:10;17.98;;;8.93;;
50649;SDS011;36621;60.058;30.346;2023-02-15T19:49:45;17.00;;;8.45;;
50649;SDS011;36621;60.058;30.346;2023-02-15T19:57:21;18.00;;;8.77;;
50649;SDS011;36621;60.058;30.346;2023-02-15T20:04:53;23.90;;;9.70;;
50649;SDS011;36621;60.058;30.346;2023-02-15T20:12:36;27.13;;;9.23;;
50649;SDS011;36621;60.058;30.346;2023-02-15T20:20:09;22.45;;;8.32;;
50649;SDS011;36621;60.058;30.346;2023-02-15T20:27:44;21.02;;;8.82;;
50649;SDS011;36621;60.058;30.346;2023-02-15T20:35:22;22.92;;;8.30;;
50649;SDS011;36621;60.058;30.346;2023-02-15T20:42:57;24.40;;;8.02;;
50649;SDS011;36621;60.058;30.346;2023-02-15T20:50:36;18.88;;;8.73;;
50649;SDS011;36621;60.058;30.346;2023-02-15T20:58:15;20.63;;;7.05;;
50649;SDS011;36621;60.058;30.346;2023-02-15T21:05:53;18.05;;;6.93;;
50649;SDS011;36621;60.058;30.346;2023-02-15T21:13:28;15.70;;;5.60;;
50649;SDS011;36621;60.058;30.346;2023-02-15T21:21:04;15.93;;;6.53;;
50649;SDS011;36621;60.058;30.346;2023-02-15T21:28:38;16.45;;;6.22;;
50649;SDS011;36621;60.058;30.346;2023-02-15T21:36:12;11.73;;;5.68;;
50649;SDS011;36621;60.058;30.346;2023-02-15T21:43:50;11.48;;;5.13;;
50649;SDS011;36621;60.058;30.346;2023-02-15T21:51:46;12.73;;;5.60;;
50649;SDS011;36621;60.058;30.346;2023-02-15T21:59:37;9.25;;;5.00;;
50649;SDS011;36621;60.058;30.346;2023-02-15T22:07:12;11.10;;;4.65;;
50649;SDS011;36621;60.058;30.346;2023-02-15T22:14:49;11.68;;;5.15;;
50649;SDS011;36621;60.058;30.346;2023-02-15T22:22:24;11.13;;;4.70;;
50649;SDS011;36621;60.058;30.346;2023-02-15T22:29:56;11.95;;;4.97;;
50649;SDS011;36621;60.058;30.346;2023-02-15T22:37:28;15.30;;;5.10;;
50649;SDS011;36621;60.058;30.346;2023-02-15T22:45:01;12.13;;;4.80;;
50649;SDS011;36621;60.058;30.346;2023-02-15T22:52:34;13.13;;;5.10;;
50649;SDS011;36621;60.058;30.346;2023-02-15T23:00:11;10.43;;;4.55;;
50649;SDS011;36621;60.058;30.346;2023-02-15T23:07:47;15.05;;;4.50;;
50649;SDS011;36621;60.058;30.346;2023-02-15T23:15:20;11.13;;;4.10;;
50649;SDS011;36621;60.058;30.346;2023-02-15T23:22:52;10.18;;;4.63;;
50649;SDS011;36621;60.058;30.346;2023-02-15T23:30:26;8.45;;;4.30;;
50649;SDS011;36621;60.058;30.346;2023-02-15T23:37:58;13.52;;;4.22;;
50649;SDS011;36621;60.058;30.346;2023-02-15T23:45:32;10.05;;;4.70;;
50649;SDS011;36621;60.058;30.346;2023-02-15T23:53:08;10.52;;;4.30;;
